Latest Weather Observations for Oakey

IDQ60801

Issued at 11:32 pm EST Tuesday 4 August 2015 (issued every 30 minutes, with the page automatically refreshed every 10 minutes)

About weather observations | Map of weather stations | Latest weather observations for QLD | Other Formats
Station Details ID: 041359 Name: OAKEY AERO Lat: -27.40 Lon: 151.74 Height: 405.69 m
Data from the previous 72 hours. | See also: Recent months at Oakey
Date/Time
EST
Temp
°C
App
Temp
°C
Dew
Point
Rel
Hum
%
Delta-T
°C
Wind Press
QNH
hPa
Press
MSL
hPa
Rain
since 9 am
mm
Dir
 
Spd
km/h
Gust
km/h
Spd
kts
Gust
kts
04/11:00pm 3.6 -0.5 0.0 77 1.4 WSW 11 13 6 7 1020.5 1020.5 0.0
04/10:30pm 3.9 -1.3 0.2 77 1.4 WSW 17 19 9 10 1021.0 1020.9 0.0
04/10:00pm 6.6 1.6 1.3 69 2.2 SW 17 20 9 11 1020.6 1020.6 0.0
04/09:30pm 7.0 2.4 1.7 69 2.2 SW 15 19 8 10 1020.6 1020.6 0.0
04/09:00pm 7.4 2.5 1.9 68 2.3 WSW 17 20 9 11 1020.4 1020.4 0.0
04/08:30pm 8.2 3.0 2.2 66 2.6 SW 19 22 10 12 1020.2 1020.1 0.0
04/08:00pm 8.8 3.6 2.4 64 2.7 SW 19 22 10 12 1020.0 1019.9 0.0
04/07:30pm 9.1 4.2 1.8 60 3.1 SW 17 20 9 11 1019.8 1019.7 0.0
04/07:00pm 10.4 5.1 1.8 55 3.7 SW 19 24 10 13 1019.6 1019.5 0.0
04/06:30pm 11.0 5.4 1.5 52 4.1 SW 20 28 11 15 1019.5 1019.4 0.0
04/06:00pm 11.8 5.8 1.2 48 4.6 WSW 22 28 12 15 1019.1 1019.0 0.0
04/05:30pm 13.0 7.3 0.7 43 5.3 WSW 20 24 11 13 1018.8 1018.7 0.0
04/05:00pm 15.0 9.2 -0.3 35 6.6 WSW 20 24 11 13 1018.4 1018.3 0.0
04/04:30pm 16.2 10.0 -0.5 32 7.2 WSW 22 28 12 15 1018.3 1018.1 0.0
04/04:00pm 17.0 11.1 -0.7 30 7.7 WSW 20 28 11 15 1018.2 1018.0 0.0
04/03:30pm 17.7 11.4 -1.0 28 8.1 W 22 30 12 16 1017.9 1017.8 0.0
04/03:00pm 17.9 11.6 -1.3 27 8.3 WSW 22 28 12 15 1018.2 1018.0 0.0
04/02:30pm 18.0 13.1 -0.8 28 8.2 WSW 15 28 8 15 1018.4 1018.3 0.0
04/02:00pm 17.6 13.3 1.2 33 7.4 W 13 24 7 13 1018.5 1018.4 0.0
04/01:30pm 17.2 12.4 0.4 32 7.5 W 15 19 8 10 1018.8 1018.7 0.0
04/01:00pm 16.8 12.2 1.3 35 7.0 WNW 15 22 8 12 1019.2 1019.1 0.0
04/12:30pm 16.4 12.4 2.8 40 6.3 W 13 19 7 10 1019.5 1019.4 0.0
04/12:00pm 15.0 11.2 1.5 40 6.0 W 11 17 6 9 1020.1 1020.0 0.0
04/11:30am 14.7 10.8 3.2 46 5.3 WNW 13 20 7 11 1020.9 1020.8 0.0
04/11:00am 13.0 9.4 2.8 50 4.6 WNW 11 19 6 10 1021.2 1021.1 0.0
04/10:30am 11.3 8.5 3.3 58 3.6 WNW 7 13 4 7 1021.6 1021.5 0.0
04/10:00am 10.3 7.7 4.0 65 2.8 W 7 13 4 7 1021.9 1021.8 0.0
04/09:30am 9.2 6.5 3.8 69 2.4 W 7 11 4 6 1022.0 1021.9 0.0
04/09:00am 7.7 5.5 3.6 75 1.8 W 4 7 2 4 1022.0 1021.9 0.0
04/08:30am 6.4 4.2 3.4 81 1.3 W 4 9 2 5 1021.8 1021.7 0.0
04/08:00am 5.0 2.4 4.4 96 0.3 NW 7 13 4 7 1021.6 1021.5 0.0
04/07:30am 1.0 -2.1 0.3 95 0.3 NE 6 7 3 4 1021.8 1021.7 0.0
04/07:00am 0.1 -3.3 -0.9 93 0.4 NE 7 9 4 5 1021.4 1021.3 0.0
04/06:30am 0.4 -3.0 -0.7 92 0.4 NNE 7 9 4 5 1021.1 1021.0 0.0
04/06:00am 1.0 -1.0 -0.3 91 0.5 CALM 0 0 0 0 1020.6 1020.6 0.0
04/05:30am 2.2 -1.0 0.9 91 0.5 WSW 7 9 4 5 1020.3 1020.2 0.0
04/05:00am 2.4 -1.2 0.9 90 0.6 WNW 9 11 5 6 1020.1 1020.0 0.0
04/04:30am 2.6 -0.9 1.0 89 0.6 W 9 13 5 7 1019.6 1019.5 0.0
04/04:00am 3.6 -1.0 1.5 86 0.8 W 15 19 8 10 1019.4 1019.3 0.0
04/03:30am 4.7 0.3 2.6 86 0.9 NW 15 17 8 9 1019.7 1019.6 0.0
04/03:00am 4.8 -0.3 2.8 87 0.8 WNW 19 19 10 10 1019.7 1019.6 0.0
04/02:30am 4.8 0.0 2.8 87 0.8 NNW 17 19 9 10 1019.9 1019.8 0.0
04/02:00am 5.4 0.7 3.4 87 0.9 NNW 17 20 9 11 1019.7 1019.6 0.0
04/01:30am 5.8 2.5 2.6 80 1.3 WNW 9 11 5 6 1019.3 1019.2 0.0
04/01:00am 7.7 2.7 3.7 76 1.8 WSW 19 22 10 12 1019.4 1019.3 0.0
04/12:30am 7.8 3.6 3.7 75 1.8 WSW 15 19 8 10 1019.9 1019.8 0.0
04/12:00am 8.5 4.1 4.7 77 1.7 SW 17 22 9 12 1020.0 1019.9 0.0
 
Date/Time
EST
Temp
°C
App
Temp
°C
Dew
Point
Rel
Hum
%
Delta-T
°C
Wind Press
QNH
hPa
Press
MSL
hPa
Rain
since 9 am
mm
Dir
 
Spd
km/h
Gust
km/h
Spd
kts
Gust
kts
03/11:30pm 7.8 4.4 4.2 78 1.6 WSW 11 15 6 8 1020.6 1020.6 0.0
03/11:00pm 8.9 5.7 5.1 77 1.7 SW 11 15 6 8 1020.5 1020.5 0.0
03/10:30pm 9.3 6.4 6.4 82 1.4 SW 11 15 6 8 1020.5 1020.5 0.0
03/10:00pm 8.7 5.0 6.2 84 1.2 WSW 15 17 8 9 1020.6 1020.6 0.0
03/09:30pm 10.0 5.7 7.1 82 1.4 W 19 20 10 11 1020.9 1020.8 0.0
03/09:00pm 11.4 8.0 7.7 78 1.8 WSW 15 17 8 9 1020.6 1020.6 0.0
03/08:30pm 12.7 10.2 8.2 74 2.3 SW 11 15 6 8 1020.2 1020.1 0.0
03/08:00pm 13.4 9.7 9.5 77 2.0 WSW 19 26 10 14 1020.2 1020.1 0.0
03/07:30pm 14.2 10.2 8.2 67 3.1 WSW 19 24 10 13 1020.1 1020.0 0.0
03/07:00pm 14.7 10.5 7.5 62 3.6 WSW 19 24 10 13 1019.4 1019.3 0.0
03/06:30pm 15.3 10.4 8.3 63 3.6 SW 24 32 13 17 1019.0 1018.9 0.0
03/06:00pm 16.2 12.1 7.7 57 4.3 SW 19 24 10 13 1018.8 1018.7 0.0
03/05:30pm 17.6 12.8 7.4 51 5.2 SW 22 28 12 15 1018.0 1017.9 0.0
03/05:00pm 19.6 14.2 6.3 42 6.8 SW 24 30 13 16 1017.6 1017.5 0.0
03/04:30pm 21.2 15.2 7.1 40 7.4 WSW 28 32 15 17 1017.2 1017.1 0.0
03/04:00pm 22.4 16.8 7.0 37 8.1 WSW 26 33 14 18 1016.8 1016.7 0.0
03/03:30pm 23.3 17.6 6.6 34 8.8 W 26 32 14 17 1016.7 1016.6 0.0
03/03:00pm 23.8 18.9 8.6 38 8.3 WSW 24 33 13 18 1016.6 1016.5 0.0
03/02:30pm 23.5 19.0 8.4 38 8.2 W 22 33 12 18 1016.6 1016.5 0.0
03/02:00pm 23.6 18.8 8.8 39 8.1 WNW 24 32 13 17 1016.9 1016.8 0.0
03/01:30pm 23.4 18.9 10.1 43 7.4 W 24 33 13 18 1017.1 1017.0 0.0
03/01:00pm 22.9 17.6 9.7 43 7.3 W 28 35 15 19 1017.5 1017.4 0.0
03/12:30pm 23.6 18.9 10.6 44 7.3 WNW 26 39 14 21 1017.8 1017.7 0.0
03/12:00pm 22.8 18.3 9.9 44 7.1 WNW 24 32 13 17 1018.2 1018.0 0.0
03/11:30am 22.1 17.9 9.9 46 6.7 WNW 22 28 12 15 1018.6 1018.5 0.0
03/11:00am 21.7 17.6 10.2 48 6.4 WNW 22 30 12 16 1019.1 1019.0 0.0
03/10:30am 21.0 16.5 10.2 50 6.0 NW 24 32 13 17 1019.5 1019.4 0.0
03/10:00am 20.1 15.0 10.5 54 5.3 NW 28 33 15 18 1019.9 1019.8 0.0
03/09:30am 19.5 15.0 11.5 60 4.5 NW 26 33 14 18 1020.2 1020.1 0.0
03/09:00am 18.5 15.5 11.8 65 3.8 NW 19 26 10 14 1020.1 1020.0 0.0
03/08:30am 16.0 15.6 11.0 72 2.7 NE 4 7 2 4 1020.0 1019.9 0.0
03/08:00am 12.6 11.2 9.4 81 1.7 NE 7 9 4 5 1019.8 1019.7 0.0
03/07:30am 9.9 7.5 8.8 93 0.6 ESE 11 13 6 7 1019.7 1019.6 0.0
03/07:00am 7.2 4.3 6.6 96 0.3 E 11 13 6 7 1019.3 1019.2 0.0
03/06:30am 5.8 3.3 4.9 94 0.4 SSE 7 9 4 5 1019.1 1019.0 0.0
03/06:00am 4.9 2.3 3.1 88 0.8 NE 6 9 3 5 1018.6 1018.5 0.0
03/05:30am 5.8 2.5 4.4 91 0.6 NE 11 13 6 7 1018.6 1018.5 0.0
03/05:00am 5.5 3.0 3.7 88 0.8 ENE 6 11 3 6 1018.6 1018.5 0.0
03/04:30am 5.9 3.5 4.1 88 0.8 NE 6 7 3 4 1018.4 1018.3 0.0
03/04:00am 6.2 3.9 4.7 90 0.7 NE 6 7 3 4 1018.5 1018.4 0.0
03/03:30am 5.8 2.4 3.8 87 0.9 NE 11 13 6 7 1018.6 1018.5 0.0
03/03:00am 6.0 3.9 4.0 87 0.9 NE 4 9 2 5 1018.8 1018.7 0.0
03/02:30am 6.2 3.2 3.9 85 1.0 NE 9 11 5 6 1019.0 1018.9 0.0
03/02:00am 6.1 3.5 4.1 87 0.9 ESE 7 9 4 5 1019.2 1019.1 0.0
03/01:30am 6.6 3.9 3.8 82 1.2 ENE 7 9 4 5 1019.5 1019.4 0.0
03/01:00am 7.4 4.8 4.4 81 1.3 NE 7 9 4 5 1019.6 1019.5 0.0
03/12:30am 7.1 4.5 4.2 82 1.3 NE 7 9 4 5 1020.0 1019.9 0.0
03/12:00am 6.9 4.2 3.9 81 1.3 ESE 7 9 4 5 1020.3 1020.2 0.0
 
Date/Time
EST
Temp
°C
App
Temp
°C
Dew
Point
Rel
Hum
%
Delta-T
°C
Wind Press
QNH
hPa
Press
MSL
hPa
Rain
since 9 am
mm
Dir
 
Spd
km/h
Gust
km/h
Spd
kts
Gust
kts
02/11:30pm 7.5 4.9 4.3 80 1.4 ENE 7 9 4 5 1020.4 1020.4 0.0
02/11:00pm 8.4 6.0 4.4 76 1.8 SSE 6 7 3 4 1020.6 1020.6 0.0
02/10:30pm 8.5 6.2 4.9 78 1.6 SE 6 7 3 4 1020.6 1020.6 0.0
02/10:00pm 8.6 6.3 5.0 78 1.6 SE 6 7 3 4 1020.8 1020.7 0.0
02/09:30pm 9.3 6.6 3.9 69 2.4 NE 7 7 4 4 1020.5 1020.5 0.0
02/09:00pm 8.6 6.0 4.0 73 2.0 NNE 7 9 4 5 1020.5 1020.5 0.0
02/08:30pm 10.2 6.6 5.2 71 2.3 NNE 13 15 7 8 1020.5 1020.5 0.0
02/08:00pm 11.5 8.0 5.4 66 2.9 NNE 13 15 7 8 1020.5 1020.5 0.0
02/07:30pm 12.4 9.4 6.0 65 3.1 NNE 11 15 6 8 1020.4 1020.4 0.0
02/07:00pm 12.2 9.1 5.6 64 3.1 N 11 13 6 7 1020.3 1020.2 0.0
02/06:30pm 14.3 11.0 6.4 59 3.9 NNW 13 13 7 7 1020.0 1019.9 0.0
02/06:00pm 15.0 11.3 6.3 56 4.3 NNW 15 17 8 9 1019.7 1019.6 0.0
02/05:30pm 17.5 13.4 6.4 48 5.6 NW 17 19 9 10 1019.4 1019.3 0.0
02/05:00pm 21.1 16.9 5.9 37 7.7 NW 17 22 9 12 1019.3 1019.2 0.0
02/04:30pm 22.6 17.8 5.5 33 8.7 NW 20 26 11 14 1019.5 1019.4 0.0
02/04:00pm 23.2 17.5 4.7 30 9.3 NW 24 32 13 17 1019.5 1019.4 0.0
02/03:30pm 23.6 18.7 5.0 30 9.5 NW 20 28 11 15 1019.4 1019.3 0.0
02/03:00pm 23.5 18.7 5.4 31 9.3 NNW 20 26 11 14 1019.4 1019.3 0.0
02/02:30pm 24.0 18.8 5.4 30 9.6 NNW 22 28 12 15 1019.8 1019.7 0.0
02/02:00pm 23.8 17.8 3.2 26 10.2 NW 24 32 13 17 1020.1 1020.0 0.0
02/01:30pm 24.0 18.5 3.9 27 10.1 NW 22 32 12 17 1020.4 1020.4 0.0
02/01:00pm 23.6 19.2 4.5 29 9.6 NNW 17 28 9 15 1020.9 1020.8 0.0
02/12:30pm 23.4 19.8 6.7 34 8.8 NW 15 30 8 16 1021.3 1021.2 0.0
02/12:00pm 23.2 19.1 6.0 33 8.9 NNW 17 24 9 13 1021.9 1021.8 0.0
02/11:30am 22.5 19.1 5.9 34 8.5 NNW 13 24 7 13 1022.4 1022.3 0.0
02/11:00am 22.5 19.2 7.9 39 7.8 NNW 15 24 8 13 1022.6 1022.6 0.0
02/10:30am 20.4 19.0 9.6 50 5.9 NNW 7 13 4 7 1022.9 1022.9 0.0
02/10:00am 18.8 17.0 9.3 54 5.1 NE 9 15 5 8 1023.4 1023.3 0.0
02/09:30am 16.9 15.4 8.6 58 4.3 NNE 6 11 3 6 1023.7 1023.6 0.0
02/09:00am 15.1 14.3 8.1 63 3.6 NE 2 6 1 3 1023.8 1023.7 0.0
02/08:30am 12.4 11.9 7.9 74 2.3 CALM 0 0 0 0 1023.7 1023.6 0.0
02/08:00am 9.4 7.4 6.1 80 1.5 NE 6 7 3 4 1023.6 1023.5 0.0
02/07:30am 7.2 5.0 6.1 93 0.5 NE 7 9 4 5 1023.4 1023.3 0.0
02/07:00am 4.1 1.4 2.9 92 0.5 NE 6 9 3 5 1023.4 1023.3 0.0
02/06:30am 3.7 1.3 2.4 91 0.5 SW 4 7 2 4 1023.4 1023.3 0.0
02/06:00am 3.8 0.5 2.2 89 0.6 SE 9 11 5 6 1022.7 1022.7 0.0
02/05:30am 4.2 0.9 2.2 87 0.8 SE 9 11 5 6 1022.2 1022.1 0.0
02/05:00am 5.3 3.9 3.6 89 0.7 CALM 0 0 0 0 1022.1 1022.0 0.0
02/04:30am 4.9 1.7 2.9 87 0.8 NE 9 11 5 6 1021.8 1021.7 0.0
02/04:00am 5.3 1.0 3.0 85 1.0 ENE 15 17 8 9 1021.8 1021.7 0.0
02/03:30am 5.9 2.2 4.5 91 0.6 ENE 13 15 7 8 1022.0 1021.9 0.0
02/03:00am 4.9 0.9 2.9 87 0.8 ENE 13 15 7 8 1022.1 1022.0 0.0
02/02:30am 4.9 1.6 2.4 84 1.0 ENE 9 11 5 6 1022.4 1022.3 0.0
02/02:00am 5.7 2.9 3.4 85 1.0 ENE 7 7 4 4 1022.6 1022.6 0.0
02/01:30am 6.0 2.5 3.7 85 1.0 NE 11 15 6 8 1022.8 1022.8 0.0
02/01:00am 6.1 2.7 3.8 85 1.0 E 11 13 6 7 1023.0 1023.0 0.0
02/12:30am 6.7 3.0 4.2 84 1.1 NE 13 15 7 8 1023.2 1023.2 0.0
02/12:00am 6.3 2.9 3.8 84 1.1 NE 11 11 6 6 1023.5 1023.4 0.0

Other Formats:

Comma delimited format used in spreadsheet applications
http://www.bom.gov.au/fwo/IDQ60801/IDQ60801.94552.axf

JavaScript Object Notation format (JSON) in row-major order
http://www.bom.gov.au/fwo/IDQ60801/IDQ60801.94552.json